sensor_id;sensor_type;location;lat;lon;timestamp;P1;durP1;ratioP1;P2;durP2;ratioP2
9422;SDS011;65863;49.506;10.400;2023-05-07T00:01:49;2.73;;;2.10;;
9422;SDS011;65863;49.506;10.400;2023-05-07T00:04:34;1.90;;;1.80;;
9422;SDS011;65863;49.506;10.400;2023-05-07T00:07:20;2.83;;;1.80;;
9422;SDS011;65863;49.506;10.400;2023-05-07T00:10:05;1.50;;;1.33;;
9422;SDS011;65863;49.506;10.400;2023-05-07T00:12:50;4.07;;;2.07;;
9422;SDS011;65863;49.506;10.400;2023-05-07T00:15:34;1.80;;;1.70;;
9422;SDS011;65863;49.506;10.400;2023-05-07T00:18:17;1.90;;;1.80;;
9422;SDS011;65863;49.506;10.400;2023-05-07T00:21:04;2.23;;;2.10;;
9422;SDS011;65863;49.506;10.400;2023-05-07T00:23:49;2.67;;;2.23;;
9422;SDS011;65863;49.506;10.400;2023-05-07T00:26:33;3.83;;;2.50;;
9422;SDS011;65863;49.506;10.400;2023-05-07T00:29:17;4.90;;;2.20;;
9422;SDS011;65863;49.506;10.400;2023-05-07T00:32:01;2.37;;;2.17;;
9422;SDS011;65863;49.506;10.400;2023-05-07T00:34:45;2.27;;;2.07;;
9422;SDS011;65863;49.506;10.400;2023-05-07T00:37:29;2.50;;;2.30;;
9422;SDS011;65863;49.506;10.400;2023-05-07T00:40:13;2.57;;;2.20;;
9422;SDS011;65863;49.506;10.400;2023-05-07T00:42:58;2.20;;;2.00;;
9422;SDS011;65863;49.506;10.400;2023-05-07T00:45:43;2.60;;;2.40;;
9422;SDS011;65863;49.506;10.400;2023-05-07T00:48:27;2.00;;;1.90;;
9422;SDS011;65863;49.506;10.400;2023-05-07T00:51:11;2.67;;;2.47;;
9422;SDS011;65863;49.506;10.400;2023-05-07T00:53:56;3.17;;;2.70;;
9422;SDS011;65863;49.506;10.400;2023-05-07T00:56:40;3.13;;;2.80;;
9422;SDS011;65863;49.506;10.400;2023-05-07T00:59:24;3.20;;;2.90;;
9422;SDS011;65863;49.506;10.400;2023-05-07T01:02:08;3.23;;;2.93;;
9422;SDS011;65863;49.506;10.400;2023-05-07T01:04:52;3.83;;;3.23;;
9422;SDS011;65863;49.506;10.400;2023-05-07T01:07:36;4.43;;;3.33;;
9422;SDS011;65863;49.506;10.400;2023-05-07T01:10:21;3.83;;;3.50;;
9422;SDS011;65863;49.506;10.400;2023-05-07T01:13:06;3.40;;;3.10;;
9422;SDS011;65863;49.506;10.400;2023-05-07T01:15:50;4.23;;;3.43;;
9422;SDS011;65863;49.506;10.400;2023-05-07T01:18:34;6.63;;;3.70;;
9422;SDS011;65863;49.506;10.400;2023-05-07T01:21:19;3.37;;;3.07;;
9422;SDS011;65863;49.506;10.400;2023-05-07T01:24:12;3.20;;;2.90;;
9422;SDS011;65863;49.506;10.400;2023-05-07T01:26:56;3.53;;;3.23;;
9422;SDS011;65863;49.506;10.400;2023-05-07T01:29:40;3.20;;;2.90;;
9422;SDS011;65863;49.506;10.400;2023-05-07T01:32:36;3.13;;;2.80;;
9422;SDS011;65863;49.506;10.400;2023-05-07T01:35:29;3.13;;;2.50;;
9422;SDS011;65863;49.506;10.400;2023-05-07T01:38:18;2.73;;;2.53;;
9422;SDS011;65863;49.506;10.400;2023-05-07T01:41:02;2.70;;;2.50;;
9422;SDS011;65863;49.506;10.400;2023-05-07T01:43:47;2.50;;;2.30;;
9422;SDS011;65863;49.506;10.400;2023-05-07T01:46:33;4.20;;;2.37;;
9422;SDS011;65863;49.506;10.400;2023-05-07T01:49:18;2.00;;;1.90;;
9422;SDS011;65863;49.506;10.400;2023-05-07T01:52:02;2.40;;;2.13;;
9422;SDS011;65863;49.506;10.400;2023-05-07T01:54:46;2.50;;;2.30;;
9422;SDS011;65863;49.506;10.400;2023-05-07T01:57:30;3.83;;;2.37;;
9422;SDS011;65863;49.506;10.400;2023-05-07T02:00:14;3.37;;;2.40;;
9422;SDS011;65863;49.506;10.400;2023-05-07T02:03:02;2.10;;;2.00;;
9422;SDS011;65863;49.506;10.400;2023-05-07T02:05:55;5.40;;;2.37;;
9422;SDS011;65863;49.506;10.400;2023-05-07T02:08:49;2.00;;;1.70;;
9422;SDS011;65863;49.506;10.400;2023-05-07T02:11:34;2.20;;;2.00;;
9422;SDS011;65863;49.506;10.400;2023-05-07T02:14:18;4.50;;;2.43;;
9422;SDS011;65863;49.506;10.400;2023-05-07T02:17:04;2.30;;;2.10;;
9422;SDS011;65863;49.506;10.400;2023-05-07T02:19:48;2.57;;;2.10;;
9422;SDS011;65863;49.506;10.400;2023-05-07T02:22:32;2.30;;;2.10;;
9422;SDS011;65863;49.506;10.400;2023-05-07T02:25:15;3.50;;;1.80;;
9422;SDS011;65863;49.506;10.400;2023-05-07T02:27:59;2.10;;;1.90;;
9422;SDS011;65863;49.506;10.400;2023-05-07T02:30:57;2.37;;;2.17;;
9422;SDS011;65863;49.506;10.400;2023-05-07T02:33:44;2.10;;;2.00;;
9422;SDS011;65863;49.506;10.400;2023-05-07T02:36:30;2.17;;;2.00;;
9422;SDS011;65863;49.506;10.400;2023-05-07T02:39:25;3.37;;;1.93;;
9422;SDS011;65863;49.506;10.400;2023-05-07T02:42:09;2.53;;;2.33;;
9422;SDS011;65863;49.506;10.400;2023-05-07T02:44:54;2.17;;;1.97;;
9422;SDS011;65863;49.506;10.400;2023-05-07T02:47:38;2.67;;;2.43;;
9422;SDS011;65863;49.506;10.400;2023-05-07T02:50:22;2.50;;;2.13;;
9422;SDS011;65863;49.506;10.400;2023-05-07T02:53:06;6.67;;;2.00;;
9422;SDS011;65863;49.506;10.400;2023-05-07T02:55:50;2.30;;;2.10;;
9422;SDS011;65863;49.506;10.400;2023-05-07T02:58:34;2.10;;;1.90;;
9422;SDS011;65863;49.506;10.400;2023-05-07T03:01:20;3.33;;;2.40;;
9422;SDS011;65863;49.506;10.400;2023-05-07T03:04:20;2.00;;;1.90;;
9422;SDS011;65863;49.506;10.400;2023-05-07T03:07:06;3.40;;;2.13;;
9422;SDS011;65863;49.506;10.400;2023-05-07T03:09:50;2.00;;;1.90;;
9422;SDS011;65863;49.506;10.400;2023-05-07T03:12:34;3.17;;;2.17;;
9422;SDS011;65863;49.506;10.400;2023-05-07T03:15:19;2.83;;;2.10;;
9422;SDS011;65863;49.506;10.400;2023-05-07T03:18:03;2.30;;;2.10;;
9422;SDS011;65863;49.506;10.400;2023-05-07T03:20:47;2.30;;;2.10;;
9422;SDS011;65863;49.506;10.400;2023-05-07T03:23:33;2.30;;;2.10;;
9422;SDS011;65863;49.506;10.400;2023-05-07T03:26:17;2.77;;;2.13;;
9422;SDS011;65863;49.506;10.400;2023-05-07T03:29:02;2.63;;;2.00;;
9422;SDS011;65863;49.506;10.400;2023-05-07T03:31:46;2.30;;;2.10;;
9422;SDS011;65863;49.506;10.400;2023-05-07T03:34:31;2.27;;;2.07;;
9422;SDS011;65863;49.506;10.400;2023-05-07T03:37:15;5.13;;;2.10;;
9422;SDS011;65863;49.506;10.400;2023-05-07T03:40:00;2.30;;;2.10;;
9422;SDS011;65863;49.506;10.400;2023-05-07T03:42:45;2.53;;;2.00;;
9422;SDS011;65863;49.506;10.400;2023-05-07T03:45:31;2.37;;;2.00;;
9422;SDS011;65863;49.506;10.400;2023-05-07T03:48:24;2.13;;;1.93;;
9422;SDS011;65863;49.506;10.400;2023-05-07T03:51:11;2.67;;;2.07;;
9422;SDS011;65863;49.506;10.400;2023-05-07T03:53:55;2.73;;;2.13;;
9422;SDS011;65863;49.506;10.400;2023-05-07T03:56:41;1.87;;;1.77;;
9422;SDS011;65863;49.506;10.400;2023-05-07T03:59:25;2.30;;;2.10;;
9422;SDS011;65863;49.506;10.400;2023-05-07T04:02:09;5.83;;;2.30;;
9422;SDS011;65863;49.506;10.400;2023-05-07T04:04:53;2.87;;;2.20;;
9422;SDS011;65863;49.506;10.400;2023-05-07T04:07:38;2.77;;;2.40;;
9422;SDS011;65863;49.506;10.400;2023-05-07T04:10:22;2.57;;;2.20;;
9422;SDS011;65863;49.506;10.400;2023-05-07T04:13:08;1.60;;;1.50;;
9422;SDS011;65863;49.506;10.400;2023-05-07T04:15:54;2.40;;;2.13;;
9422;SDS011;65863;49.506;10.400;2023-05-07T04:18:38;2.93;;;2.63;;
9422;SDS011;65863;49.506;10.400;2023-05-07T04:21:23;2.90;;;2.60;;
9422;SDS011;65863;49.506;10.400;2023-05-07T04:24:08;2.40;;;2.20;;
9422;SDS011;65863;49.506;10.400;2023-05-07T04:26:52;2.73;;;2.40;;
9422;SDS011;65863;49.506;10.400;2023-05-07T04:29:38;3.30;;;2.23;;
9422;SDS011;65863;49.506;10.400;2023-05-07T04:32:27;2.60;;;2.10;;
9422;SDS011;65863;49.506;10.400;2023-05-07T04:35:12;2.47;;;1.93;;
9422;SDS011;65863;49.506;10.400;2023-05-07T04:37:57;2.50;;;2.30;;
9422;SDS011;65863;49.506;10.400;2023-05-07T04:40:41;2.90;;;2.47;;
9422;SDS011;65863;49.506;10.400;2023-05-07T04:43:27;2.43;;;2.23;;
9422;SDS011;65863;49.506;10.400;2023-05-07T04:46:11;2.97;;;2.40;;
9422;SDS011;65863;49.506;10.400;2023-05-07T04:48:55;2.47;;;2.27;;
9422;SDS011;65863;49.506;10.400;2023-05-07T04:51:39;2.77;;;2.47;;
9422;SDS011;65863;49.506;10.400;2023-05-07T04:54:27;2.77;;;2.40;;
9422;SDS011;65863;49.506;10.400;2023-05-07T04:57:11;2.60;;;2.40;;
9422;SDS011;65863;49.506;10.400;2023-05-07T04:59:55;2.40;;;2.20;;
9422;SDS011;65863;49.506;10.400;2023-05-07T05:02:40;2.83;;;2.57;;
9422;SDS011;65863;49.506;10.400;2023-05-07T05:05:25;2.60;;;2.40;;
9422;SDS011;65863;49.506;10.400;2023-05-07T05:08:10;2.50;;;2.30;;
9422;SDS011;65863;49.506;10.400;2023-05-07T05:10:57;2.67;;;2.47;;
9422;SDS011;65863;49.506;10.400;2023-05-07T05:13:41;3.43;;;2.37;;
9422;SDS011;65863;49.506;10.400;2023-05-07T05:16:30;2.80;;;2.57;;
9422;SDS011;65863;49.506;10.400;2023-05-07T05:19:14;3.90;;;2.80;;
9422;SDS011;65863;49.506;10.400;2023-05-07T05:21:59;2.53;;;2.33;;
9422;SDS011;65863;49.506;10.400;2023-05-07T05:24:45;4.57;;;2.97;;
9422;SDS011;65863;49.506;10.400;2023-05-07T05:27:29;2.47;;;2.27;;
9422;SDS011;65863;49.506;10.400;2023-05-07T05:30:14;2.63;;;2.43;;
9422;SDS011;65863;49.506;10.400;2023-05-07T05:32:59;2.90;;;2.60;;
9422;SDS011;65863;49.506;10.400;2023-05-07T05:35:45;2.77;;;2.50;;
9422;SDS011;65863;49.506;10.400;2023-05-07T05:38:30;3.07;;;2.77;;
9422;SDS011;65863;49.506;10.400;2023-05-07T05:41:15;2.60;;;2.40;;
9422;SDS011;65863;49.506;10.400;2023-05-07T05:43:59;3.90;;;2.80;;
9422;SDS011;65863;49.506;10.400;2023-05-07T05:46:43;3.57;;;2.57;;
9422;SDS011;65863;49.506;10.400;2023-05-07T05:49:27;2.57;;;2.37;;
9422;SDS011;65863;49.506;10.400;2023-05-07T05:52:12;3.37;;;3.07;;
9422;SDS011;65863;49.506;10.400;2023-05-07T05:54:58;3.00;;;2.43;;
9422;SDS011;65863;49.506;10.400;2023-05-07T05:57:43;3.53;;;2.90;;
9422;SDS011;65863;49.506;10.400;2023-05-07T06:00:27;3.13;;;2.83;;
9422;SDS011;65863;49.506;10.400;2023-05-07T06:03:17;2.90;;;2.70;;
9422;SDS011;65863;49.506;10.400;2023-05-07T06:06:01;3.20;;;2.90;;
9422;SDS011;65863;49.506;10.400;2023-05-07T06:08:46;3.40;;;3.10;;
9422;SDS011;65863;49.506;10.400;2023-05-07T06:11:34;3.40;;;3.10;;
9422;SDS011;65863;49.506;10.400;2023-05-07T06:14:18;3.60;;;3.17;;
9422;SDS011;65863;49.506;10.400;2023-05-07T06:17:04;3.10;;;2.80;;
9422;SDS011;65863;49.506;10.400;2023-05-07T06:19:49;2.80;;;2.60;;
9422;SDS011;65863;49.506;10.400;2023-05-07T06:22:35;2.90;;;2.70;;
9422;SDS011;65863;49.506;10.400;2023-05-07T06:25:20;3.43;;;3.10;;
9422;SDS011;65863;49.506;10.400;2023-05-07T06:28:04;3.23;;;2.87;;
9422;SDS011;65863;49.506;10.400;2023-05-07T06:30:50;3.40;;;3.03;;
9422;SDS011;65863;49.506;10.400;2023-05-07T06:33:35;3.10;;;2.80;;
9422;SDS011;65863;49.506;10.400;2023-05-07T06:36:19;2.97;;;2.77;;
9422;SDS011;65863;49.506;10.400;2023-05-07T06:39:04;3.23;;;2.87;;
9422;SDS011;65863;49.506;10.400;2023-05-07T06:41:48;3.20;;;2.90;;
9422;SDS011;65863;49.506;10.400;2023-05-07T06:44:41;3.60;;;2.93;;
9422;SDS011;65863;49.506;10.400;2023-05-07T06:47:29;3.93;;;3.17;;
9422;SDS011;65863;49.506;10.400;2023-05-07T06:50:13;3.27;;;2.97;;
9422;SDS011;65863;49.506;10.400;2023-05-07T06:53:00;2.80;;;2.60;;
9422;SDS011;65863;49.506;10.400;2023-05-07T06:55:44;3.50;;;3.00;;
9422;SDS011;65863;49.506;10.400;2023-05-07T06:58:30;3.10;;;2.80;;
9422;SDS011;65863;49.506;10.400;2023-05-07T07:01:14;3.47;;;3.13;;
9422;SDS011;65863;49.506;10.400;2023-05-07T07:04:00;3.10;;;2.83;;
9422;SDS011;65863;49.506;10.400;2023-05-07T07:06:46;3.13;;;2.67;;
9422;SDS011;65863;49.506;10.400;2023-05-07T07:09:31;3.40;;;2.63;;
9422;SDS011;65863;49.506;10.400;2023-05-07T07:12:17;3.80;;;2.83;;
9422;SDS011;65863;49.506;10.400;2023-05-07T07:15:01;3.47;;;3.07;;
9422;SDS011;65863;49.506;10.400;2023-05-07T07:17:47;3.60;;;3.30;;
9422;SDS011;65863;49.506;10.400;2023-05-07T07:20:32;3.00;;;2.77;;
9422;SDS011;65863;49.506;10.400;2023-05-07T07:23:16;3.63;;;3.30;;
9422;SDS011;65863;49.506;10.400;2023-05-07T07:26:00;3.47;;;3.17;;
9422;SDS011;65863;49.506;10.400;2023-05-07T07:28:45;3.40;;;3.10;;
9422;SDS011;65863;49.506;10.400;2023-05-07T07:31:33;3.83;;;3.17;;
9422;SDS011;65863;49.506;10.400;2023-05-07T07:34:16;4.77;;;3.37;;
9422;SDS011;65863;49.506;10.400;2023-05-07T07:37:01;3.73;;;3.43;;
9422;SDS011;65863;49.506;10.400;2023-05-07T07:39:49;3.60;;;3.27;;
9422;SDS011;65863;49.506;10.400;2023-05-07T07:42:34;3.97;;;3.43;;
9422;SDS011;65863;49.506;10.400;2023-05-07T07:45:20;6.07;;;3.67;;
9422;SDS011;65863;49.506;10.400;2023-05-07T07:48:06;3.87;;;3.47;;
9422;SDS011;65863;49.506;10.400;2023-05-07T07:50:53;4.13;;;3.10;;
9422;SDS011;65863;49.506;10.400;2023-05-07T07:53:37;3.43;;;3.07;;
9422;SDS011;65863;49.506;10.400;2023-05-07T07:56:22;3.67;;;3.37;;
9422;SDS011;65863;49.506;10.400;2023-05-07T07:59:06;6.10;;;3.87;;
9422;SDS011;65863;49.506;10.400;2023-05-07T08:01:53;3.63;;;3.23;;
9422;SDS011;65863;49.506;10.400;2023-05-07T08:04:41;3.30;;;3.00;;
9422;SDS011;65863;49.506;10.400;2023-05-07T08:07:27;4.40;;;3.30;;
9422;SDS011;65863;49.506;10.400;2023-05-07T08:10:11;4.07;;;3.43;;
9422;SDS011;65863;49.506;10.400;2023-05-07T08:12:55;3.50;;;3.13;;
9422;SDS011;65863;49.506;10.400;2023-05-07T08:15:39;3.57;;;3.27;;
9422;SDS011;65863;49.506;10.400;2023-05-07T08:18:24;3.80;;;3.40;;
9422;SDS011;65863;49.506;10.400;2023-05-07T08:21:09;5.43;;;3.37;;
9422;SDS011;65863;49.506;10.400;2023-05-07T08:23:54;3.60;;;3.30;;
9422;SDS011;65863;49.506;10.400;2023-05-07T08:26:39;3.20;;;2.90;;
9422;SDS011;65863;49.506;10.400;2023-05-07T08:29:24;3.57;;;3.27;;
9422;SDS011;65863;49.506;10.400;2023-05-07T08:32:08;4.40;;;3.50;;
9422;SDS011;65863;49.506;10.400;2023-05-07T08:34:52;3.93;;;3.43;;
9422;SDS011;65863;49.506;10.400;2023-05-07T08:37:36;3.70;;;3.30;;
9422;SDS011;65863;49.506;10.400;2023-05-07T08:40:22;3.47;;;3.17;;
9422;SDS011;65863;49.506;10.400;2023-05-07T08:43:10;3.47;;;3.17;;
9422;SDS011;65863;49.506;10.400;2023-05-07T08:45:56;3.87;;;3.20;;
9422;SDS011;65863;49.506;10.400;2023-05-07T08:48:48;6.13;;;3.30;;
9422;SDS011;65863;49.506;10.400;2023-05-07T08:51:33;3.23;;;2.90;;
9422;SDS011;65863;49.506;10.400;2023-05-07T08:54:18;4.17;;;3.47;;
9422;SDS011;65863;49.506;10.400;2023-05-07T08:57:04;4.00;;;3.30;;
9422;SDS011;65863;49.506;10.400;2023-05-07T08:59:50;3.30;;;3.07;;
9422;SDS011;65863;49.506;10.400;2023-05-07T09:02:35;3.40;;;3.10;;
9422;SDS011;65863;49.506;10.400;2023-05-07T09:05:20;3.57;;;3.27;;
9422;SDS011;65863;49.506;10.400;2023-05-07T09:08:06;3.40;;;3.10;;
9422;SDS011;65863;49.506;10.400;2023-05-07T09:10:51;3.03;;;2.73;;
9422;SDS011;65863;49.506;10.400;2023-05-07T09:13:36;3.90;;;3.03;;
9422;SDS011;65863;49.506;10.400;2023-05-07T09:16:58;3.23;;;2.93;;
9422;SDS011;65863;49.506;10.400;2023-05-07T09:19:48;4.60;;;3.13;;
9422;SDS011;65863;49.506;10.400;2023-05-07T09:22:38;3.33;;;3.03;;
9422;SDS011;65863;49.506;10.400;2023-05-07T09:25:27;3.50;;;3.00;;
9422;SDS011;65863;49.506;10.400;2023-05-07T09:28:18;3.20;;;2.97;;
9422;SDS011;65863;49.506;10.400;2023-05-07T09:31:02;3.50;;;2.50;;
9422;SDS011;65863;49.506;10.400;2023-05-07T09:33:46;2.93;;;2.73;;
9422;SDS011;65863;49.506;10.400;2023-05-07T09:36:34;3.93;;;3.07;;
9422;SDS011;65863;49.506;10.400;2023-05-07T09:39:20;3.63;;;3.33;;
9422;SDS011;65863;49.506;10.400;2023-05-07T09:42:04;3.27;;;2.90;;
9422;SDS011;65863;49.506;10.400;2023-05-07T09:45:07;3.13;;;2.83;;
9422;SDS011;65863;49.506;10.400;2023-05-07T09:47:55;3.40;;;2.80;;
9422;SDS011;65863;49.506;10.400;2023-05-07T09:50:44;2.57;;;2.37;;
9422;SDS011;65863;49.506;10.400;2023-05-07T09:53:52;3.00;;;2.80;;
9422;SDS011;65863;49.506;10.400;2023-05-07T09:56:55;2.90;;;2.50;;
9422;SDS011;65863;49.506;10.400;2023-05-07T09:59:43;2.67;;;2.47;;
9422;SDS011;65863;49.506;10.400;2023-05-07T10:02:49;2.57;;;2.37;;
9422;SDS011;65863;49.506;10.400;2023-05-07T10:05:54;2.50;;;2.33;;
9422;SDS011;65863;49.506;10.400;2023-05-07T10:08:39;2.60;;;2.40;;
9422;SDS011;65863;49.506;10.400;2023-05-07T10:11:25;2.57;;;2.37;;
9422;SDS011;65863;49.506;10.400;2023-05-07T10:14:09;3.50;;;2.30;;
9422;SDS011;65863;49.506;10.400;2023-05-07T10:16:54;2.57;;;2.37;;
9422;SDS011;65863;49.506;10.400;2023-05-07T10:19:39;2.73;;;2.47;;
9422;SDS011;65863;49.506;10.400;2023-05-07T10:22:43;2.53;;;2.33;;
9422;SDS011;65863;49.506;10.400;2023-05-07T10:25:31;2.37;;;2.17;;
9422;SDS011;65863;49.506;10.400;2023-05-07T10:28:22;2.30;;;2.10;;
9422;SDS011;65863;49.506;10.400;2023-05-07T10:31:40;2.50;;;2.27;;
9422;SDS011;65863;49.506;10.400;2023-05-07T10:35:07;2.13;;;1.93;;
9422;SDS011;65863;49.506;10.400;2023-05-07T10:37:57;2.50;;;1.87;;
9422;SDS011;65863;49.506;10.400;2023-05-07T10:41:01;2.40;;;1.80;;
9422;SDS011;65863;49.506;10.400;2023-05-07T10:43:49;1.97;;;1.67;;
9422;SDS011;65863;49.506;10.400;2023-05-07T10:46:42;2.37;;;1.87;;
9422;SDS011;65863;49.506;10.400;2023-05-07T10:49:35;1.40;;;1.30;;
9422;SDS011;65863;49.506;10.400;2023-05-07T10:52:24;1.70;;;1.60;;
9422;SDS011;65863;49.506;10.400;2023-05-07T10:55:26;1.40;;;1.30;;
9422;SDS011;65863;49.506;10.400;2023-05-07T11:01:06;1.07;;;1.03;;
9422;SDS011;65863;49.506;10.400;2023-05-07T11:04:13;1.63;;;1.20;;
9422;SDS011;65863;49.506;10.400;2023-05-07T11:10:03;1.50;;;1.40;;
9422;SDS011;65863;49.506;10.400;2023-05-07T11:13:01;1.83;;;1.37;;
9422;SDS011;65863;49.506;10.400;2023-05-07T11:15:52;1.80;;;1.53;;
9422;SDS011;65863;49.506;10.400;2023-05-07T11:18:52;1.37;;;1.27;;
9422;SDS011;65863;49.506;10.400;2023-05-07T11:21:44;1.47;;;1.20;;
9422;SDS011;65863;49.506;10.400;2023-05-07T11:24:39;1.50;;;1.40;;
9422;SDS011;65863;49.506;10.400;2023-05-07T11:27:26;1.53;;;1.43;;
9422;SDS011;65863;49.506;10.400;2023-05-07T11:30:16;1.57;;;1.47;;
9422;SDS011;65863;49.506;10.400;2023-05-07T11:33:02;1.47;;;1.37;;
9422;SDS011;65863;49.506;10.400;2023-05-07T11:35:47;2.70;;;1.50;;
9422;SDS011;65863;49.506;10.400;2023-05-07T11:38:37;2.10;;;1.50;;
9422;SDS011;65863;49.506;10.400;2023-05-07T11:41:22;3.33;;;1.40;;
9422;SDS011;65863;49.506;10.400;2023-05-07T11:44:06;1.50;;;1.40;;
9422;SDS011;65863;49.506;10.400;2023-05-07T11:46:50;1.40;;;1.30;;
9422;SDS011;65863;49.506;10.400;2023-05-07T11:49:34;1.53;;;1.43;;
9422;SDS011;65863;49.506;10.400;2023-05-07T11:52:20;1.80;;;1.40;;
9422;SDS011;65863;49.506;10.400;2023-05-07T11:55:06;1.93;;;1.40;;
9422;SDS011;65863;49.506;10.400;2023-05-07T11:57:50;2.00;;;1.80;;
9422;SDS011;65863;49.506;10.400;2023-05-07T12:00:34;1.43;;;1.33;;
9422;SDS011;65863;49.506;10.400;2023-05-07T12:03:19;1.60;;;1.50;;
9422;SDS011;65863;49.506;10.400;2023-05-07T12:06:06;1.67;;;1.40;;
9422;SDS011;65863;49.506;10.400;2023-05-07T12:08:51;1.33;;;1.23;;
9422;SDS011;65863;49.506;10.400;2023-05-07T12:11:35;2.83;;;1.37;;
9422;SDS011;65863;49.506;10.400;2023-05-07T12:14:41;1.73;;;1.63;;
9422;SDS011;65863;49.506;10.400;2023-05-07T12:17:26;1.60;;;1.50;;
9422;SDS011;65863;49.506;10.400;2023-05-07T12:20:10;1.70;;;1.60;;
9422;SDS011;65863;49.506;10.400;2023-05-07T12:22:55;1.60;;;1.50;;
9422;SDS011;65863;49.506;10.400;2023-05-07T12:25:40;1.67;;;1.57;;
9422;SDS011;65863;49.506;10.400;2023-05-07T12:28:35;1.73;;;1.63;;
9422;SDS011;65863;49.506;10.400;2023-05-07T12:31:21;1.50;;;1.40;;
9422;SDS011;65863;49.506;10.400;2023-05-07T12:34:24;1.50;;;1.40;;
9422;SDS011;65863;49.506;10.400;2023-05-07T12:37:08;1.13;;;1.13;;
9422;SDS011;65863;49.506;10.400;2023-05-07T12:40:08;1.40;;;1.30;;
9422;SDS011;65863;49.506;10.400;2023-05-07T12:42:54;1.33;;;1.23;;
9422;SDS011;65863;49.506;10.400;2023-05-07T12:45:41;1.40;;;1.30;;
9422;SDS011;65863;49.506;10.400;2023-05-07T12:48:26;1.33;;;1.23;;
9422;SDS011;65863;49.506;10.400;2023-05-07T12:51:13;1.50;;;1.40;;
9422;SDS011;65863;49.506;10.400;2023-05-07T12:53:58;1.63;;;1.53;;
9422;SDS011;65863;49.506;10.400;2023-05-07T12:56:42;1.50;;;1.40;;
9422;SDS011;65863;49.506;10.400;2023-05-07T12:59:46;2.53;;;1.87;;
9422;SDS011;65863;49.506;10.400;2023-05-07T13:02:33;1.63;;;1.53;;
9422;SDS011;65863;49.506;10.400;2023-05-07T13:05:38;1.80;;;1.70;;
9422;SDS011;65863;49.506;10.400;2023-05-07T13:08:29;1.90;;;1.73;;
9422;SDS011;65863;49.506;10.400;2023-05-07T13:11:23;1.80;;;1.70;;
9422;SDS011;65863;49.506;10.400;2023-05-07T13:14:07;1.70;;;1.60;;
9422;SDS011;65863;49.506;10.400;2023-05-07T13:17:10;1.50;;;1.40;;
9422;SDS011;65863;49.506;10.400;2023-05-07T13:20:01;1.60;;;1.50;;
9422;SDS011;65863;49.506;10.400;2023-05-07T13:22:44;1.40;;;1.30;;
9422;SDS011;65863;49.506;10.400;2023-05-07T13:25:29;1.53;;;1.43;;
9422;SDS011;65863;49.506;10.400;2023-05-07T13:28:12;1.50;;;1.40;;
9422;SDS011;65863;49.506;10.400;2023-05-07T13:30:56;1.90;;;1.80;;
9422;SDS011;65863;49.506;10.400;2023-05-07T13:33:40;1.90;;;1.60;;
9422;SDS011;65863;49.506;10.400;2023-05-07T13:36:25;2.87;;;1.53;;
9422;SDS011;65863;49.506;10.400;2023-05-07T13:39:10;2.07;;;1.77;;
9422;SDS011;65863;49.506;10.400;2023-05-07T13:42:00;3.10;;;1.80;;
9422;SDS011;65863;49.506;10.400;2023-05-07T13:44:44;1.77;;;1.63;;
9422;SDS011;65863;49.506;10.400;2023-05-07T13:47:29;2.50;;;2.00;;
9422;SDS011;65863;49.506;10.400;2023-05-07T13:50:31;2.37;;;2.17;;
9422;SDS011;65863;49.506;10.400;2023-05-07T13:53:15;1.60;;;1.50;;
9422;SDS011;65863;49.506;10.400;2023-05-07T13:56:01;1.97;;;1.80;;
9422;SDS011;65863;49.506;10.400;2023-05-07T13:58:48;2.00;;;1.80;;
9422;SDS011;65863;49.506;10.400;2023-05-07T14:01:32;1.60;;;1.50;;
9422;SDS011;65863;49.506;10.400;2023-05-07T14:04:16;3.07;;;1.50;;
9422;SDS011;65863;49.506;10.400;2023-05-07T14:07:01;1.73;;;1.63;;
9422;SDS011;65863;49.506;10.400;2023-05-07T14:09:45;1.60;;;1.50;;
9422;SDS011;65863;49.506;10.400;2023-05-07T14:12:38;1.60;;;1.50;;
9422;SDS011;65863;49.506;10.400;2023-05-07T14:15:22;1.60;;;1.50;;
9422;SDS011;65863;49.506;10.400;2023-05-07T14:18:06;1.40;;;1.30;;
9422;SDS011;65863;49.506;10.400;2023-05-07T14:21:09;1.70;;;1.60;;
9422;SDS011;65863;49.506;10.400;2023-05-07T14:24:12;1.40;;;1.30;;
9422;SDS011;65863;49.506;10.400;2023-05-07T14:26:56;2.33;;;2.00;;
9422;SDS011;65863;49.506;10.400;2023-05-07T14:29:40;1.37;;;1.27;;
9422;SDS011;65863;49.506;10.400;2023-05-07T14:32:25;2.10;;;1.60;;
9422;SDS011;65863;49.506;10.400;2023-05-07T14:35:09;2.00;;;1.53;;
9422;SDS011;65863;49.506;10.400;2023-05-07T14:37:53;1.53;;;1.43;;
9422;SDS011;65863;49.506;10.400;2023-05-07T14:40:37;1.57;;;1.40;;
9422;SDS011;65863;49.506;10.400;2023-05-07T14:43:21;1.60;;;1.50;;
9422;SDS011;65863;49.506;10.400;2023-05-07T14:46:07;1.40;;;1.30;;
9422;SDS011;65863;49.506;10.400;2023-05-07T14:48:51;1.60;;;1.50;;
9422;SDS011;65863;49.506;10.400;2023-05-07T14:51:34;1.50;;;1.40;;
9422;SDS011;65863;49.506;10.400;2023-05-07T14:54:18;1.80;;;1.60;;
9422;SDS011;65863;49.506;10.400;2023-05-07T14:57:04;1.33;;;1.23;;
9422;SDS011;65863;49.506;10.400;2023-05-07T14:59:49;1.40;;;1.40;;
9422;SDS011;65863;49.506;10.400;2023-05-07T15:02:33;2.03;;;1.60;;
9422;SDS011;65863;49.506;10.400;2023-05-07T15:05:18;2.67;;;1.90;;
9422;SDS011;65863;49.506;10.400;2023-05-07T15:08:03;1.87;;;1.77;;
9422;SDS011;65863;49.506;10.400;2023-05-07T15:10:47;1.70;;;1.60;;
9422;SDS011;65863;49.506;10.400;2023-05-07T15:13:31;1.67;;;1.57;;
9422;SDS011;65863;49.506;10.400;2023-05-07T15:16:15;1.77;;;1.67;;
9422;SDS011;65863;49.506;10.400;2023-05-07T15:18:59;1.60;;;1.50;;
9422;SDS011;65863;49.506;10.400;2023-05-07T15:22:02;2.60;;;2.27;;
9422;SDS011;65863;49.506;10.400;2023-05-07T15:24:46;2.37;;;2.17;;
9422;SDS011;65863;49.506;10.400;2023-05-07T15:27:49;2.10;;;1.90;;
9422;SDS011;65863;49.506;10.400;2023-05-07T15:30:34;2.00;;;1.90;;
9422;SDS011;65863;49.506;10.400;2023-05-07T15:33:18;1.93;;;1.83;;
9422;SDS011;65863;49.506;10.400;2023-05-07T15:36:02;1.63;;;1.50;;
9422;SDS011;65863;49.506;10.400;2023-05-07T15:38:47;2.17;;;1.57;;
9422;SDS011;65863;49.506;10.400;2023-05-07T15:41:31;1.50;;;1.40;;
9422;SDS011;65863;49.506;10.400;2023-05-07T15:44:34;2.10;;;1.90;;
9422;SDS011;65863;49.506;10.400;2023-05-07T15:47:19;2.07;;;1.80;;
9422;SDS011;65863;49.506;10.400;2023-05-07T15:50:03;2.00;;;1.87;;
9422;SDS011;65863;49.506;10.400;2023-05-07T15:52:48;1.73;;;1.63;;
9422;SDS011;65863;49.506;10.400;2023-05-07T15:55:32;5.27;;;2.47;;
9422;SDS011;65863;49.506;10.400;2023-05-07T15:58:35;2.40;;;2.20;;
9422;SDS011;65863;49.506;10.400;2023-05-07T16:01:19;3.37;;;2.87;;
9422;SDS011;65863;49.506;10.400;2023-05-07T16:04:03;2.37;;;2.03;;
9422;SDS011;65863;49.506;10.400;2023-05-07T16:06:48;2.90;;;1.90;;
9422;SDS011;65863;49.506;10.400;2023-05-07T16:09:32;5.00;;;3.73;;
9422;SDS011;65863;49.506;10.400;2023-05-07T16:12:35;4.07;;;2.60;;
9422;SDS011;65863;49.506;10.400;2023-05-07T16:15:19;2.20;;;2.00;;
9422;SDS011;65863;49.506;10.400;2023-05-07T16:18:03;1.80;;;1.70;;
9422;SDS011;65863;49.506;10.400;2023-05-07T16:20:47;2.40;;;2.20;;
9422;SDS011;65863;49.506;10.400;2023-05-07T16:23:37;2.20;;;2.00;;
9422;SDS011;65863;49.506;10.400;2023-05-07T16:26:21;2.00;;;1.60;;
9422;SDS011;65863;49.506;10.400;2023-05-07T16:29:24;1.87;;;1.73;;
9422;SDS011;65863;49.506;10.400;2023-05-07T16:32:08;1.73;;;1.60;;
9422;SDS011;65863;49.506;10.400;2023-05-07T16:34:52;2.37;;;1.90;;
9422;SDS011;65863;49.506;10.400;2023-05-07T16:37:38;2.00;;;1.80;;
9422;SDS011;65863;49.506;10.400;2023-05-07T16:40:23;1.60;;;1.50;;
9422;SDS011;65863;49.506;10.400;2023-05-07T16:43:07;1.90;;;1.60;;
9422;SDS011;65863;49.506;10.400;2023-05-07T16:45:51;1.80;;;1.70;;
9422;SDS011;65863;49.506;10.400;2023-05-07T16:48:35;2.00;;;1.77;;
9422;SDS011;65863;49.506;10.400;2023-05-07T16:51:19;1.77;;;1.67;;
9422;SDS011;65863;49.506;10.400;2023-05-07T16:54:05;2.10;;;1.90;;